Terminal Aerodrome Forecast
Issued by NWS

Home | Current Version | Previous Version | Text Only | Print | Product List | Glossary On
Versions: 1 2 3 4 5 6 7 8 9 10 11 12 13 14 15 16 17 18
000
FTPQ31 PGUM 222322
TAFGUM
TAF

TAF
PGRO 222322Z 2300/2324 06009KT P6SM VCSH FEW011 SCT050
     FM230100 06014KT P6SM VCSH FEW015 SCT050
     FM230800 06006KT P6SM VCSH FEW015 SCT050=

USA.gov is the U.S. government's official web portal to all federal, state and local government web resources and services.